sensor_id;sensor_type;location;lat;lon;timestamp;P1;durP1;ratioP1;P2;durP2;ratioP2
14021;SDS011;7086;48.116;11.580;2022-08-06T00:02:34;2.45;;;1.30;;
14021;SDS011;7086;48.116;11.580;2022-08-06T00:05:16;1.40;;;1.27;;
14021;SDS011;7086;48.116;11.580;2022-08-06T00:18:00;0.98;;;0.98;;
14021;SDS011;7086;48.116;11.580;2022-08-06T00:20:41;1.25;;;1.20;;
14021;SDS011;7086;48.116;11.580;2022-08-06T00:23:23;0.98;;;0.98;;
14021;SDS011;7086;48.116;11.580;2022-08-06T00:26:05;1.90;;;1.20;;
14021;SDS011;7086;48.116;11.580;2022-08-06T00:28:34;1.38;;;1.27;;
14021;SDS011;7086;48.116;11.580;2022-08-06T00:31:05;2.13;;;1.55;;
14021;SDS011;7086;48.116;11.580;2022-08-06T00:33:50;1.60;;;1.48;;
14021;SDS011;7086;48.116;11.580;2022-08-06T00:36:21;1.40;;;1.30;;
14021;SDS011;7086;48.116;11.580;2022-08-06T00:38:50;1.38;;;1.27;;
14021;SDS011;7086;48.116;11.580;2022-08-06T00:41:32;2.33;;;1.60;;
14021;SDS011;7086;48.116;11.580;2022-08-06T00:44:14;2.28;;;1.50;;
14021;SDS011;7086;48.116;11.580;2022-08-06T00:46:45;1.75;;;1.63;;
14021;SDS011;7086;48.116;11.580;2022-08-06T00:52:15;3.50;;;1.55;;
14021;SDS011;7086;48.116;11.580;2022-08-06T00:54:45;1.42;;;1.42;;
14021;SDS011;7086;48.116;11.580;2022-08-06T00:57:12;2.22;;;1.27;;
14021;SDS011;7086;48.116;11.580;2022-08-06T00:59:41;2.08;;;1.38;;
14021;SDS011;7086;48.116;11.580;2022-08-06T01:02:11;2.00;;;1.90;;
14021;SDS011;7086;48.116;11.580;2022-08-06T01:08:21;1.63;;;1.40;;
14021;SDS011;7086;48.116;11.580;2022-08-06T01:10:50;3.13;;;1.48;;
14021;SDS011;7086;48.116;11.580;2022-08-06T01:13:20;0.93;;;0.93;;
14021;SDS011;7086;48.116;11.580;2022-08-06T01:15:50;1.20;;;1.10;;
14021;SDS011;7086;48.116;11.580;2022-08-06T01:18:40;1.30;;;1.20;;
14021;SDS011;7086;48.116;11.580;2022-08-06T01:21:51;1.67;;;1.05;;
14021;SDS011;7086;48.116;11.580;2022-08-06T01:31:19;1.35;;;1.25;;
14021;SDS011;7086;48.116;11.580;2022-08-06T01:33:55;1.60;;;1.20;;
14021;SDS011;7086;48.116;11.580;2022-08-06T01:36:31;1.52;;;1.42;;
14021;SDS011;7086;48.116;11.580;2022-08-06T01:39:07;0.80;;;0.80;;
14021;SDS011;7086;48.116;11.580;2022-08-06T01:41:44;2.25;;;0.98;;
14021;SDS011;7086;48.116;11.580;2022-08-06T01:44:25;1.05;;;0.90;;
14021;SDS011;7086;48.116;11.580;2022-08-06T01:47:11;1.20;;;1.20;;
14021;SDS011;7086;48.116;11.580;2022-08-06T01:49:50;1.27;;;1.27;;
14021;SDS011;7086;48.116;11.580;2022-08-06T01:52:25;1.33;;;1.23;;
14021;SDS011;7086;48.116;11.580;2022-08-06T01:55:12;1.20;;;0.98;;
14021;SDS011;7086;48.116;11.580;2022-08-06T01:57:46;1.17;;;1.13;;
14021;SDS011;7086;48.116;11.580;2022-08-06T02:00:24;1.15;;;1.15;;
14021;SDS011;7086;48.116;11.580;2022-08-06T02:02:54;1.42;;;1.33;;
14021;SDS011;7086;48.116;11.580;2022-08-06T02:05:38;1.13;;;1.00;;
14021;SDS011;7086;48.116;11.580;2022-08-06T02:08:24;1.13;;;1.13;;
14021;SDS011;7086;48.116;11.580;2022-08-06T02:11:12;1.25;;;1.10;;
14021;SDS011;7086;48.116;11.580;2022-08-06T02:13:48;1.23;;;1.05;;
14021;SDS011;7086;48.116;11.580;2022-08-06T02:16:26;1.30;;;1.25;;
14021;SDS011;7086;48.116;11.580;2022-08-06T02:19:15;1.48;;;1.20;;
14021;SDS011;7086;48.116;11.580;2022-08-06T02:21:58;2.17;;;1.10;;
14021;SDS011;7086;48.116;11.580;2022-08-06T02:24:35;1.10;;;1.00;;
14021;SDS011;7086;48.116;11.580;2022-08-06T02:27:04;1.35;;;1.23;;
14021;SDS011;7086;48.116;11.580;2022-08-06T02:29:47;1.85;;;1.10;;
14021;SDS011;7086;48.116;11.580;2022-08-06T02:32:34;0.90;;;0.90;;
14021;SDS011;7086;48.116;11.580;2022-08-06T02:35:16;2.63;;;1.52;;
14021;SDS011;7086;48.116;11.580;2022-08-06T02:37:54;1.20;;;1.20;;
14021;SDS011;7086;48.116;11.580;2022-08-06T02:40:44;1.98;;;1.20;;
14021;SDS011;7086;48.116;11.580;2022-08-06T02:43:22;1.58;;;1.48;;
14021;SDS011;7086;48.116;11.580;2022-08-06T02:46:07;1.35;;;1.35;;
14021;SDS011;7086;48.116;11.580;2022-08-06T02:56:13;3.22;;;1.48;;
14021;SDS011;7086;48.116;11.580;2022-08-06T02:58:56;1.67;;;1.25;;
14021;SDS011;7086;48.116;11.580;2022-08-06T03:01:41;1.20;;;1.20;;
14021;SDS011;7086;48.116;11.580;2022-08-06T03:04:31;1.85;;;1.52;;
14021;SDS011;7086;48.116;11.580;2022-08-06T03:07:08;1.30;;;1.30;;
14021;SDS011;7086;48.116;11.580;2022-08-06T03:20:18;2.17;;;1.48;;
14021;SDS011;7086;48.116;11.580;2022-08-06T03:23:06;1.60;;;1.50;;
14021;SDS011;7086;48.116;11.580;2022-08-06T03:25:50;2.15;;;1.90;;
14021;SDS011;7086;48.116;11.580;2022-08-06T03:28:36;1.88;;;1.77;;
14021;SDS011;7086;48.116;11.580;2022-08-06T03:31:18;1.67;;;1.60;;
14021;SDS011;7086;48.116;11.580;2022-08-06T03:34:02;2.78;;;1.92;;
14021;SDS011;7086;48.116;11.580;2022-08-06T03:46:38;2.80;;;2.60;;
14021;SDS011;7086;48.116;11.580;2022-08-06T03:49:13;4.18;;;3.28;;
14021;SDS011;7086;48.116;11.580;2022-08-06T03:51:49;2.58;;;2.42;;
14021;SDS011;7086;48.116;11.580;2022-08-06T03:54:28;3.72;;;3.42;;
14021;SDS011;7086;48.116;11.580;2022-08-06T03:57:03;5.05;;;4.55;;
14021;SDS011;7086;48.116;11.580;2022-08-06T03:59:43;3.40;;;3.20;;
14021;SDS011;7086;48.116;11.580;2022-08-06T04:02:27;3.92;;;3.13;;
14021;SDS011;7086;48.116;11.580;2022-08-06T04:04:59;5.30;;;4.30;;
14021;SDS011;7086;48.116;11.580;2022-08-06T04:07:31;3.72;;;3.42;;
14021;SDS011;7086;48.116;11.580;2022-08-06T04:10:01;4.00;;;3.60;;
14021;SDS011;7086;48.116;11.580;2022-08-06T04:12:31;4.32;;;4.03;;
14021;SDS011;7086;48.116;11.580;2022-08-06T04:15:05;6.07;;;5.57;;
14021;SDS011;7086;48.116;11.580;2022-08-06T04:17:35;5.70;;;4.18;;
14021;SDS011;7086;48.116;11.580;2022-08-06T04:20:21;4.78;;;4.47;;
14021;SDS011;7086;48.116;11.580;2022-08-06T04:23:05;3.97;;;3.67;;
14021;SDS011;7086;48.116;11.580;2022-08-06T04:25:47;5.13;;;4.63;;
14021;SDS011;7086;48.116;11.580;2022-08-06T04:28:19;6.15;;;5.55;;
14021;SDS011;7086;48.116;11.580;2022-08-06T04:30:55;5.20;;;4.80;;
14021;SDS011;7086;48.116;11.580;2022-08-06T04:33:26;4.57;;;4.32;;
14021;SDS011;7086;48.116;11.580;2022-08-06T04:35:58;4.75;;;4.45;;
14021;SDS011;7086;48.116;11.580;2022-08-06T04:38:31;5.88;;;5.38;;
14021;SDS011;7086;48.116;11.580;2022-08-06T04:41:10;5.85;;;5.43;;
14021;SDS011;7086;48.116;11.580;2022-08-06T04:43:54;7.35;;;6.75;;
14021;SDS011;7086;48.116;11.580;2022-08-06T04:46:27;10.38;;;9.30;;
14021;SDS011;7086;48.116;11.580;2022-08-06T04:49:03;10.10;;;9.20;;
14021;SDS011;7086;48.116;11.580;2022-08-06T04:51:32;10.07;;;9.18;;
14021;SDS011;7086;48.116;11.580;2022-08-06T04:54:04;9.60;;;8.80;;
14021;SDS011;7086;48.116;11.580;2022-08-06T04:56:34;11.45;;;10.45;;
14021;SDS011;7086;48.116;11.580;2022-08-06T04:59:18;10.95;;;9.85;;
14021;SDS011;7086;48.116;11.580;2022-08-06T05:08:45;7.82;;;7.20;;
14021;SDS011;7086;48.116;11.580;2022-08-06T05:11:35;10.95;;;9.85;;
14021;SDS011;7086;48.116;11.580;2022-08-06T05:14:27;8.30;;;7.50;;
14021;SDS011;7086;48.116;11.580;2022-08-06T05:17:04;6.72;;;6.22;;
14021;SDS011;7086;48.116;11.580;2022-08-06T05:19:51;5.30;;;4.90;;
14021;SDS011;7086;48.116;11.580;2022-08-06T05:22:25;6.45;;;5.45;;
14021;SDS011;7086;48.116;11.580;2022-08-06T05:25:20;4.97;;;4.57;;
14021;SDS011;7086;48.116;11.580;2022-08-06T05:27:49;4.53;;;4.22;;
14021;SDS011;7086;48.116;11.580;2022-08-06T05:30:17;4.07;;;3.78;;
14021;SDS011;7086;48.116;11.580;2022-08-06T05:32:50;3.95;;;3.72;;
14021;SDS011;7086;48.116;11.580;2022-08-06T05:35:33;3.72;;;3.42;;
14021;SDS011;7086;48.116;11.580;2022-08-06T05:38:15;3.92;;;3.63;;
14021;SDS011;7086;48.116;11.580;2022-08-06T05:54:23;4.00;;;3.70;;
14021;SDS011;7086;48.116;11.580;2022-08-06T05:57:17;3.30;;;3.10;;
14021;SDS011;7086;48.116;11.580;2022-08-06T05:59:54;4.43;;;4.03;;
14021;SDS011;7086;48.116;11.580;2022-08-06T06:02:34;4.38;;;2.90;;
14021;SDS011;7086;48.116;11.580;2022-08-06T06:05:09;3.28;;;3.08;;
14021;SDS011;7086;48.116;11.580;2022-08-06T06:10:47;3.40;;;3.10;;
14021;SDS011;7086;48.116;11.580;2022-08-06T06:13:34;3.33;;;3.00;;
14021;SDS011;7086;48.116;11.580;2022-08-06T06:16:05;3.13;;;2.85;;
14021;SDS011;7086;48.116;11.580;2022-08-06T06:18:53;3.75;;;3.15;;
14021;SDS011;7086;48.116;11.580;2022-08-06T06:21:50;3.45;;;3.15;;
14021;SDS011;7086;48.116;11.580;2022-08-06T06:24:46;3.75;;;3.47;;
14021;SDS011;7086;48.116;11.580;2022-08-06T06:27:24;3.10;;;2.90;;
14021;SDS011;7086;48.116;11.580;2022-08-06T06:30:12;3.88;;;3.40;;
14021;SDS011;7086;48.116;11.580;2022-08-06T06:32:48;3.42;;;3.17;;
14021;SDS011;7086;48.116;11.580;2022-08-06T06:35:41;3.90;;;3.55;;
14021;SDS011;7086;48.116;11.580;2022-08-06T06:39:01;3.97;;;3.70;;
14021;SDS011;7086;48.116;11.580;2022-08-06T06:45:41;2.70;;;2.60;;
14021;SDS011;7086;48.116;11.580;2022-08-06T06:48:45;3.10;;;3.00;;
14021;SDS011;7086;48.116;11.580;2022-08-06T06:51:19;4.30;;;3.90;;
14021;SDS011;7086;48.116;11.580;2022-08-06T06:53:59;4.15;;;3.92;;
14021;SDS011;7086;48.116;11.580;2022-08-06T06:56:39;4.20;;;3.80;;
14021;SDS011;7086;48.116;11.580;2022-08-06T06:59:16;3.88;;;3.67;;
14021;SDS011;7086;48.116;11.580;2022-08-06T07:01:50;6.85;;;4.38;;
14021;SDS011;7086;48.116;11.580;2022-08-06T07:04:37;4.53;;;4.18;;
14021;SDS011;7086;48.116;11.580;2022-08-06T07:07:06;3.65;;;3.45;;
14021;SDS011;7086;48.116;11.580;2022-08-06T07:09:36;3.38;;;3.17;;
14021;SDS011;7086;48.116;11.580;2022-08-06T07:12:09;3.30;;;3.10;;
14021;SDS011;7086;48.116;11.580;2022-08-06T07:14:43;4.40;;;4.05;;
14021;SDS011;7086;48.116;11.580;2022-08-06T07:17:23;5.47;;;4.88;;
14021;SDS011;7086;48.116;11.580;2022-08-06T07:20:18;3.13;;;2.92;;
14021;SDS011;7086;48.116;11.580;2022-08-06T07:23:07;4.40;;;4.03;;
14021;SDS011;7086;48.116;11.580;2022-08-06T07:25:36;3.28;;;2.97;;
14021;SDS011;7086;48.116;11.580;2022-08-06T07:28:08;4.30;;;3.20;;
14021;SDS011;7086;48.116;11.580;2022-08-06T07:30:44;3.20;;;3.00;;
14021;SDS011;7086;48.116;11.580;2022-08-06T07:33:15;2.65;;;2.55;;
14021;SDS011;7086;48.116;11.580;2022-08-06T07:35:58;3.90;;;3.58;;
14021;SDS011;7086;48.116;11.580;2022-08-06T07:38:32;3.45;;;3.30;;
14021;SDS011;7086;48.116;11.580;2022-08-06T07:41:04;3.28;;;3.10;;
14021;SDS011;7086;48.116;11.580;2022-08-06T07:43:34;3.38;;;2.95;;
14021;SDS011;7086;48.116;11.580;2022-08-06T07:49:25;4.07;;;3.50;;
14021;SDS011;7086;48.116;11.580;2022-08-06T07:52:07;3.50;;;3.35;;
14021;SDS011;7086;48.116;11.580;2022-08-06T07:54:57;4.13;;;3.92;;
14021;SDS011;7086;48.116;11.580;2022-08-06T07:57:28;3.63;;;3.42;;
14021;SDS011;7086;48.116;11.580;2022-08-06T08:02:47;4.20;;;4.00;;
14021;SDS011;7086;48.116;11.580;2022-08-06T08:57:18;5.60;;;5.20;;
14021;SDS011;7086;48.116;11.580;2022-08-06T08:59:49;6.35;;;5.85;;
14021;SDS011;7086;48.116;11.580;2022-08-06T09:02:36;7.40;;;6.70;;
14021;SDS011;7086;48.116;11.580;2022-08-06T09:05:20;6.55;;;5.95;;
14021;SDS011;7086;48.116;11.580;2022-08-06T09:08:34;5.78;;;5.28;;
14021;SDS011;7086;48.116;11.580;2022-08-06T09:11:37;5.82;;;5.43;;
14021;SDS011;7086;48.116;11.580;2022-08-06T09:36:18;6.32;;;5.80;;
14021;SDS011;7086;48.116;11.580;2022-08-06T09:39:04;7.80;;;7.00;;
14021;SDS011;7086;48.116;11.580;2022-08-06T09:41:51;7.55;;;6.85;;
14021;SDS011;7086;48.116;11.580;2022-08-06T10:38:26;4.78;;;4.38;;
14021;SDS011;7086;48.116;11.580;2022-08-06T10:41:09;4.68;;;4.38;;
14021;SDS011;7086;48.116;11.580;2022-08-06T10:43:38;4.78;;;4.47;;
14021;SDS011;7086;48.116;11.580;2022-08-06T10:46:26;4.90;;;4.50;;
14021;SDS011;7086;48.116;11.580;2022-08-06T11:22:40;4.80;;;4.50;;
14021;SDS011;7086;48.116;11.580;2022-08-06T11:25:10;4.57;;;4.28;;
14021;SDS011;7086;48.116;11.580;2022-08-06T11:27:52;4.05;;;3.75;;
14021;SDS011;7086;48.116;11.580;2022-08-06T11:30:37;4.53;;;4.25;;
14021;SDS011;7086;48.116;11.580;2022-08-06T11:33:14;5.43;;;4.97;;
14021;SDS011;7086;48.116;11.580;2022-08-06T12:21:08;7.38;;;6.70;;
14021;SDS011;7086;48.116;11.580;2022-08-06T12:23:56;7.15;;;6.65;;
14021;SDS011;7086;48.116;11.580;2022-08-06T12:26:29;7.65;;;6.95;;
14021;SDS011;7086;48.116;11.580;2022-08-06T12:29:05;7.18;;;6.63;;
14021;SDS011;7086;48.116;11.580;2022-08-06T12:31:35;6.82;;;6.32;;
14021;SDS011;7086;48.116;11.580;2022-08-06T12:34:22;8.27;;;7.53;;
14021;SDS011;7086;48.116;11.580;2022-08-06T13:50:17;5.63;;;5.22;;
14021;SDS011;7086;48.116;11.580;2022-08-06T14:01:02;5.13;;;4.80;;
14021;SDS011;7086;48.116;11.580;2022-08-06T14:03:50;5.35;;;4.95;;
14021;SDS011;7086;48.116;11.580;2022-08-06T14:06:35;5.53;;;3.90;;
14021;SDS011;7086;48.116;11.580;2022-08-06T14:09:11;4.22;;;4.03;;
14021;SDS011;7086;48.116;11.580;2022-08-06T14:11:41;4.65;;;4.35;;
14021;SDS011;7086;48.116;11.580;2022-08-06T14:14:15;4.63;;;4.32;;
14021;SDS011;7086;48.116;11.580;2022-08-06T14:16:47;5.13;;;4.75;;
14021;SDS011;7086;48.116;11.580;2022-08-06T14:19:35;5.30;;;4.90;;
14021;SDS011;7086;48.116;11.580;2022-08-06T14:22:04;5.05;;;4.65;;
14021;SDS011;7086;48.116;11.580;2022-08-06T14:24:46;4.95;;;4.50;;
14021;SDS011;7086;48.116;11.580;2022-08-06T14:27:28;4.75;;;4.45;;
14021;SDS011;7086;48.116;11.580;2022-08-06T14:30:10;5.15;;;4.75;;
14021;SDS011;7086;48.116;11.580;2022-08-06T14:32:54;4.22;;;4.03;;
14021;SDS011;7086;48.116;11.580;2022-08-06T14:35:37;3.90;;;3.58;;
14021;SDS011;7086;48.116;11.580;2022-08-06T14:38:19;3.97;;;3.78;;
14021;SDS011;7086;48.116;11.580;2022-08-06T14:41:02;4.45;;;4.25;;
14021;SDS011;7086;48.116;11.580;2022-08-06T14:43:47;5.05;;;4.65;;
14021;SDS011;7086;48.116;11.580;2022-08-06T14:46:32;4.18;;;3.90;;
14021;SDS011;7086;48.116;11.580;2022-08-06T14:49:03;4.55;;;4.35;;
14021;SDS011;7086;48.116;11.580;2022-08-06T14:51:41;4.45;;;4.25;;
14021;SDS011;7086;48.116;11.580;2022-08-06T14:54:11;4.68;;;4.28;;
14021;SDS011;7086;48.116;11.580;2022-08-06T14:56:56;4.18;;;3.97;;
14021;SDS011;7086;48.116;11.580;2022-08-06T14:59:38;4.47;;;4.22;;
14021;SDS011;7086;48.116;11.580;2022-08-06T15:02:20;4.00;;;3.70;;
14021;SDS011;7086;48.116;11.580;2022-08-06T15:04:52;4.15;;;3.92;;
14021;SDS011;7086;48.116;11.580;2022-08-06T15:07:38;4.13;;;3.92;;
14021;SDS011;7086;48.116;11.580;2022-08-06T15:10:20;3.95;;;3.67;;
14021;SDS011;7086;48.116;11.580;2022-08-06T15:12:48;3.75;;;3.55;;
14021;SDS011;7086;48.116;11.580;2022-08-06T15:15:20;4.10;;;3.80;;
14021;SDS011;7086;48.116;11.580;2022-08-06T15:17:51;9.82;;;8.98;;
14021;SDS011;7086;48.116;11.580;2022-08-06T15:20:19;7.03;;;5.20;;
14021;SDS011;7086;48.116;11.580;2022-08-06T15:29:18;3.20;;;3.05;;
14021;SDS011;7086;48.116;11.580;2022-08-06T15:31:59;3.33;;;3.13;;
14021;SDS011;7086;48.116;11.580;2022-08-06T15:34:29;3.50;;;3.30;;
14021;SDS011;7086;48.116;11.580;2022-08-06T15:36:56;3.17;;;3.08;;
14021;SDS011;7086;48.116;11.580;2022-08-06T15:39:24;4.05;;;3.75;;
14021;SDS011;7086;48.116;11.580;2022-08-06T15:41:57;3.50;;;3.30;;
14021;SDS011;7086;48.116;11.580;2022-08-06T15:44:34;4.30;;;3.90;;
14021;SDS011;7086;48.116;11.580;2022-08-06T15:47:15;3.88;;;3.67;;
14021;SDS011;7086;48.116;11.580;2022-08-06T15:49:46;3.83;;;3.53;;
14021;SDS011;7086;48.116;11.580;2022-08-06T15:52:15;2.70;;;2.60;;
14021;SDS011;7086;48.116;11.580;2022-08-06T15:54:45;3.85;;;3.65;;
14021;SDS011;7086;48.116;11.580;2022-08-06T15:57:24;4.18;;;3.88;;
14021;SDS011;7086;48.116;11.580;2022-08-06T15:59:54;3.70;;;3.50;;
14021;SDS011;7086;48.116;11.580;2022-08-06T16:02:43;6.28;;;5.88;;
14021;SDS011;7086;48.116;11.580;2022-08-06T16:05:27;4.18;;;3.88;;
14021;SDS011;7086;48.116;11.580;2022-08-06T16:08:07;3.88;;;3.60;;
14021;SDS011;7086;48.116;11.580;2022-08-06T16:10:43;3.08;;;2.88;;
14021;SDS011;7086;48.116;11.580;2022-08-06T16:13:45;3.45;;;3.25;;
14021;SDS011;7086;48.116;11.580;2022-08-06T16:16:14;4.45;;;4.18;;
14021;SDS011;7086;48.116;11.580;2022-08-06T16:18:42;6.45;;;5.95;;
14021;SDS011;7086;48.116;11.580;2022-08-06T16:21:09;5.32;;;4.82;;
14021;SDS011;7086;48.116;11.580;2022-08-06T16:23:42;4.25;;;3.95;;
14021;SDS011;7086;48.116;11.580;2022-08-06T16:26:16;4.90;;;4.40;;
14021;SDS011;7086;48.116;11.580;2022-08-06T16:28:48;4.70;;;4.40;;
14021;SDS011;7086;48.116;11.580;2022-08-06T16:31:17;4.43;;;3.60;;
14021;SDS011;7086;48.116;11.580;2022-08-06T16:33:46;3.58;;;3.38;;
14021;SDS011;7086;48.116;11.580;2022-08-06T16:36:14;3.25;;;3.13;;
14021;SDS011;7086;48.116;11.580;2022-08-06T16:38:42;5.38;;;3.50;;
14021;SDS011;7086;48.116;11.580;2022-08-06T16:41:25;3.75;;;3.45;;
14021;SDS011;7086;48.116;11.580;2022-08-06T16:43:56;4.18;;;3.92;;
14021;SDS011;7086;48.116;11.580;2022-08-06T16:46:26;7.82;;;7.10;;
14021;SDS011;7086;48.116;11.580;2022-08-06T16:48:56;5.03;;;4.72;;
14021;SDS011;7086;48.116;11.580;2022-08-06T16:51:24;5.75;;;5.35;;
14021;SDS011;7086;48.116;11.580;2022-08-06T16:54:00;4.47;;;4.18;;
14021;SDS011;7086;48.116;11.580;2022-08-06T16:56:39;5.22;;;4.85;;
14021;SDS011;7086;48.116;11.580;2022-08-06T16:59:30;4.55;;;4.25;;
14021;SDS011;7086;48.116;11.580;2022-08-06T17:02:09;4.35;;;4.05;;
14021;SDS011;7086;48.116;11.580;2022-08-06T17:04:57;4.20;;;4.00;;
14021;SDS011;7086;48.116;11.580;2022-08-06T17:07:39;3.55;;;3.25;;
14021;SDS011;7086;48.116;11.580;2022-08-06T17:10:14;3.70;;;3.50;;
14021;SDS011;7086;48.116;11.580;2022-08-06T17:12:45;11.60;;;6.85;;
14021;SDS011;7086;48.116;11.580;2022-08-06T17:15:29;4.93;;;4.53;;
14021;SDS011;7086;48.116;11.580;2022-08-06T17:17:58;4.57;;;4.28;;
14021;SDS011;7086;48.116;11.580;2022-08-06T17:20:27;6.97;;;6.40;;
14021;SDS011;7086;48.116;11.580;2022-08-06T17:22:55;6.82;;;6.20;;
14021;SDS011;7086;48.116;11.580;2022-08-06T17:25:25;5.07;;;4.72;;
14021;SDS011;7086;48.116;11.580;2022-08-06T17:28:07;4.32;;;4.13;;
14021;SDS011;7086;48.116;11.580;2022-08-06T17:30:51;4.40;;;3.97;;
14021;SDS011;7086;48.116;11.580;2022-08-06T17:33:20;3.80;;;3.50;;
14021;SDS011;7086;48.116;11.580;2022-08-06T17:35:48;4.30;;;4.07;;
14021;SDS011;7086;48.116;11.580;2022-08-06T17:38:17;4.10;;;3.72;;
14021;SDS011;7086;48.116;11.580;2022-08-06T17:40:46;4.13;;;3.83;;
14021;SDS011;7086;48.116;11.580;2022-08-06T17:43:15;4.13;;;3.92;;
14021;SDS011;7086;48.116;11.580;2022-08-06T17:45:53;3.75;;;3.50;;
14021;SDS011;7086;48.116;11.580;2022-08-06T17:48:21;4.13;;;3.90;;
14021;SDS011;7086;48.116;11.580;2022-08-06T17:50:49;5.03;;;4.50;;
14021;SDS011;7086;48.116;11.580;2022-08-06T17:53:17;7.93;;;7.22;;
14021;SDS011;7086;48.116;11.580;2022-08-06T17:55:46;9.05;;;8.32;;
14021;SDS011;7086;48.116;11.580;2022-08-06T17:58:25;11.55;;;10.55;;
14021;SDS011;7086;48.116;11.580;2022-08-06T18:00:58;7.75;;;7.15;;
14021;SDS011;7086;48.116;11.580;2022-08-06T18:03:28;5.68;;;5.28;;
14021;SDS011;7086;48.116;11.580;2022-08-06T18:06:09;4.45;;;4.18;;
14021;SDS011;7086;48.116;11.580;2022-08-06T18:08:38;5.25;;;4.90;;
14021;SDS011;7086;48.116;11.580;2022-08-06T18:11:06;4.53;;;4.13;;
14021;SDS011;7086;48.116;11.580;2022-08-06T18:13:37;5.22;;;4.78;;
14021;SDS011;7086;48.116;11.580;2022-08-06T18:19:05;3.50;;;3.30;;
14021;SDS011;7086;48.116;11.580;2022-08-06T18:21:34;4.60;;;4.18;;
14021;SDS011;7086;48.116;11.580;2022-08-06T18:24:04;3.65;;;3.45;;
14021;SDS011;7086;48.116;11.580;2022-08-06T18:26:33;4.90;;;4.53;;
14021;SDS011;7086;48.116;11.580;2022-08-06T18:29:02;5.28;;;4.78;;
14021;SDS011;7086;48.116;11.580;2022-08-06T18:31:31;6.22;;;5.63;;
14021;SDS011;7086;48.116;11.580;2022-08-06T18:34:03;6.43;;;5.85;;
14021;SDS011;7086;48.116;11.580;2022-08-06T18:36:33;7.60;;;7.10;;
14021;SDS011;7086;48.116;11.580;2022-08-06T18:39:01;8.80;;;5.78;;
14021;SDS011;7086;48.116;11.580;2022-08-06T18:41:32;4.80;;;4.50;;
14021;SDS011;7086;48.116;11.580;2022-08-06T18:44:04;5.30;;;5.00;;
14021;SDS011;7086;48.116;11.580;2022-08-06T18:46:32;5.53;;;5.07;;
14021;SDS011;7086;48.116;11.580;2022-08-06T18:49:05;4.72;;;4.43;;
14021;SDS011;7086;48.116;11.580;2022-08-06T18:51:35;4.95;;;4.55;;
14021;SDS011;7086;48.116;11.580;2022-08-06T18:54:05;4.80;;;4.50;;
14021;SDS011;7086;48.116;11.580;2022-08-06T18:56:38;4.18;;;3.88;;
14021;SDS011;7086;48.116;11.580;2022-08-06T18:59:09;6.57;;;3.80;;
14021;SDS011;7086;48.116;11.580;2022-08-06T19:01:39;3.85;;;3.58;;
14021;SDS011;7086;48.116;11.580;2022-08-06T19:04:07;4.80;;;4.60;;
14021;SDS011;7086;48.116;11.580;2022-08-06T19:06:37;5.05;;;4.75;;
14021;SDS011;7086;48.116;11.580;2022-08-06T19:09:12;6.43;;;5.85;;
14021;SDS011;7086;48.116;11.580;2022-08-06T19:11:39;7.75;;;7.05;;
14021;SDS011;7086;48.116;11.580;2022-08-06T19:14:09;5.15;;;4.82;;
14021;SDS011;7086;48.116;11.580;2022-08-06T19:16:39;4.97;;;4.68;;
14021;SDS011;7086;48.116;11.580;2022-08-06T19:19:06;5.22;;;4.93;;
14021;SDS011;7086;48.116;11.580;2022-08-06T19:21:34;5.63;;;5.00;;
14021;SDS011;7086;48.116;11.580;2022-08-06T19:24:02;4.88;;;4.57;;
14021;SDS011;7086;48.116;11.580;2022-08-06T19:26:30;5.00;;;4.70;;
14021;SDS011;7086;48.116;11.580;2022-08-06T19:28:58;5.18;;;4.88;;
14021;SDS011;7086;48.116;11.580;2022-08-06T19:31:27;5.20;;;4.90;;
14021;SDS011;7086;48.116;11.580;2022-08-06T19:33:56;5.28;;;4.88;;
14021;SDS011;7086;48.116;11.580;2022-08-06T19:36:24;5.82;;;4.80;;
14021;SDS011;7086;48.116;11.580;2022-08-06T19:38:52;4.75;;;4.45;;
14021;SDS011;7086;48.116;11.580;2022-08-06T19:41:20;5.03;;;4.70;;
14021;SDS011;7086;48.116;11.580;2022-08-06T19:43:48;5.70;;;5.32;;
14021;SDS011;7086;48.116;11.580;2022-08-06T19:46:16;5.53;;;5.20;;
14021;SDS011;7086;48.116;11.580;2022-08-06T19:48:44;5.28;;;4.97;;
14021;SDS011;7086;48.116;11.580;2022-08-06T19:51:13;5.75;;;5.25;;
14021;SDS011;7086;48.116;11.580;2022-08-06T19:53:43;5.72;;;5.32;;
14021;SDS011;7086;48.116;11.580;2022-08-06T19:56:12;5.38;;;5.05;;
14021;SDS011;7086;48.116;11.580;2022-08-06T19:58:41;5.10;;;4.80;;
14021;SDS011;7086;48.116;11.580;2022-08-06T20:01:09;5.18;;;4.88;;
14021;SDS011;7086;48.116;11.580;2022-08-06T20:03:40;6.22;;;5.70;;
14021;SDS011;7086;48.116;11.580;2022-08-06T20:06:10;5.38;;;5.07;;
14021;SDS011;7086;48.116;11.580;2022-08-06T20:08:39;6.15;;;5.85;;
14021;SDS011;7086;48.116;11.580;2022-08-06T20:11:09;5.53;;;5.22;;
14021;SDS011;7086;48.116;11.580;2022-08-06T20:13:38;6.10;;;5.60;;
14021;SDS011;7086;48.116;11.580;2022-08-06T20:16:06;5.90;;;5.40;;
14021;SDS011;7086;48.116;11.580;2022-08-06T20:18:34;6.25;;;5.75;;
14021;SDS011;7086;48.116;11.580;2022-08-06T20:21:02;6.30;;;6.00;;
14021;SDS011;7086;48.116;11.580;2022-08-06T20:23:40;7.70;;;7.10;;
14021;SDS011;7086;48.116;11.580;2022-08-06T20:26:08;7.47;;;6.88;;
14021;SDS011;7086;48.116;11.580;2022-08-06T20:28:36;7.35;;;6.85;;
14021;SDS011;7086;48.116;11.580;2022-08-06T20:31:04;7.07;;;6.47;;
14021;SDS011;7086;48.116;11.580;2022-08-06T20:33:31;7.18;;;6.63;;
14021;SDS011;7086;48.116;11.580;2022-08-06T20:35:59;7.28;;;6.78;;
14021;SDS011;7086;48.116;11.580;2022-08-06T20:38:27;6.95;;;6.45;;
14021;SDS011;7086;48.116;11.580;2022-08-06T20:40:59;7.25;;;6.72;;
14021;SDS011;7086;48.116;11.580;2022-08-06T20:43:27;7.15;;;6.63;;
14021;SDS011;7086;48.116;11.580;2022-08-06T20:45:58;7.90;;;7.28;;
14021;SDS011;7086;48.116;11.580;2022-08-06T20:48:28;7.55;;;6.95;;
14021;SDS011;7086;48.116;11.580;2022-08-06T20:50:56;6.57;;;6.15;;
14021;SDS011;7086;48.116;11.580;2022-08-06T20:53:24;7.53;;;6.88;;
14021;SDS011;7086;48.116;11.580;2022-08-06T20:55:52;6.93;;;6.45;;
14021;SDS011;7086;48.116;11.580;2022-08-06T20:58:21;7.32;;;6.82;;
14021;SDS011;7086;48.116;11.580;2022-08-06T21:00:50;7.05;;;6.57;;
14021;SDS011;7086;48.116;11.580;2022-08-06T21:03:18;7.40;;;6.90;;
14021;SDS011;7086;48.116;11.580;2022-08-06T21:05:49;6.90;;;6.40;;
14021;SDS011;7086;48.116;11.580;2022-08-06T21:08:17;7.38;;;6.88;;
14021;SDS011;7086;48.116;11.580;2022-08-06T21:10:47;7.35;;;6.85;;
14021;SDS011;7086;48.116;11.580;2022-08-06T21:13:15;6.63;;;6.22;;
14021;SDS011;7086;48.116;11.580;2022-08-06T21:15:44;6.88;;;6.45;;
14021;SDS011;7086;48.116;11.580;2022-08-06T21:18:13;6.93;;;6.53;;
14021;SDS011;7086;48.116;11.580;2022-08-06T21:20:42;7.32;;;6.82;;
14021;SDS011;7086;48.116;11.580;2022-08-06T21:23:12;6.88;;;6.28;;
14021;SDS011;7086;48.116;11.580;2022-08-06T21:25:40;7.63;;;7.03;;
14021;SDS011;7086;48.116;11.580;2022-08-06T21:28:09;8.55;;;7.78;;
14021;SDS011;7086;48.116;11.580;2022-08-06T21:30:40;6.60;;;6.20;;
14021;SDS011;7086;48.116;11.580;2022-08-06T21:33:10;6.93;;;6.53;;
14021;SDS011;7086;48.116;11.580;2022-08-06T21:35:39;7.80;;;7.15;;
14021;SDS011;7086;48.116;11.580;2022-08-06T21:38:07;7.15;;;6.72;;
14021;SDS011;7086;48.116;11.580;2022-08-06T21:40:35;7.13;;;6.65;;
14021;SDS011;7086;48.116;11.580;2022-08-06T21:43:04;7.38;;;6.85;;
14021;SDS011;7086;48.116;11.580;2022-08-06T21:45:31;7.30;;;6.70;;
14021;SDS011;7086;48.116;11.580;2022-08-06T21:47:59;7.28;;;6.78;;
14021;SDS011;7086;48.116;11.580;2022-08-06T21:50:28;8.32;;;7.70;;
14021;SDS011;7086;48.116;11.580;2022-08-06T21:52:57;8.23;;;7.72;;
14021;SDS011;7086;48.116;11.580;2022-08-06T21:55:24;8.75;;;8.15;;
14021;SDS011;7086;48.116;11.580;2022-08-06T21:57:52;8.07;;;7.47;;
14021;SDS011;7086;48.116;11.580;2022-08-06T22:00:35;8.85;;;8.18;;
14021;SDS011;7086;48.116;11.580;2022-08-06T22:03:09;7.85;;;7.22;;